sensor_id;sensor_type;location;lat;lon;timestamp;pressure;altitude;pressure_sealevel;temperature;humidity
5574;BME280;2563;52.242;7.956;2023-03-04T00:02:03;100690.94;;;4.26;100.00
5574;BME280;2563;52.242;7.956;2023-03-04T00:04:29;100694.31;;;4.25;100.00
5574;BME280;2563;52.242;7.956;2023-03-04T00:06:54;100693.50;;;4.26;100.00
5574;BME280;2563;52.242;7.956;2023-03-04T00:09:20;100689.28;;;4.32;100.00
5574;BME280;2563;52.242;7.956;2023-03-04T00:11:45;100684.16;;;4.35;100.00
5574;BME280;2563;52.242;7.956;2023-03-04T00:14:11;100686.75;;;4.39;100.00
5574;BME280;2563;52.242;7.956;2023-03-04T00:16:36;100684.19;;;4.39;100.00
5574;BME280;2563;52.242;7.956;2023-03-04T00:19:02;100688.44;;;4.40;100.00
5574;BME280;2563;52.242;7.956;2023-03-04T00:21:27;100692.69;;;4.41;100.00
5574;BME280;2563;52.242;7.956;2023-03-04T00:23:53;100689.28;;;4.39;100.00
5574;BME280;2563;52.242;7.956;2023-03-04T00:26:18;100696.06;;;4.37;100.00
5574;BME280;2563;52.242;7.956;2023-03-04T00:28:43;100687.59;;;4.37;100.00
5574;BME280;2563;52.242;7.956;2023-03-04T00:31:09;100694.38;;;4.38;100.00
5574;BME280;2563;52.242;7.956;2023-03-04T00:33:35;100691.84;;;4.41;100.00
5574;BME280;2563;52.242;7.956;2023-03-04T00:36:01;100691.00;;;4.39;100.00
5574;BME280;2563;52.242;7.956;2023-03-04T00:38:26;100678.25;;;4.39;100.00
5574;BME280;2563;52.242;7.956;2023-03-04T00:40:52;100676.53;;;4.39;100.00
5574;BME280;2563;52.242;7.956;2023-03-04T00:43:18;100674.84;;;4.41;100.00
5574;BME280;2563;52.242;7.956;2023-03-04T00:45:43;100669.75;;;4.41;100.00
5574;BME280;2563;52.242;7.956;2023-03-04T00:48:09;100662.94;;;4.40;100.00
5574;BME280;2563;52.242;7.956;2023-03-04T00:50:35;100677.38;;;4.37;100.00
5574;BME280;2563;52.242;7.956;2023-03-04T00:53:01;100668.03;;;4.37;100.00
5574;BME280;2563;52.242;7.956;2023-03-04T00:55:27;100664.66;;;4.38;100.00
5574;BME280;2563;52.242;7.956;2023-03-04T00:57:52;100662.13;;;4.38;100.00
5574;BME280;2563;52.242;7.956;2023-03-04T01:00:18;100662.94;;;4.40;100.00
5574;BME280;2563;52.242;7.956;2023-03-04T01:02:43;100659.56;;;4.41;100.00
5574;BME280;2563;52.242;7.956;2023-03-04T01:05:09;100662.09;;;4.40;100.00
5574;BME280;2563;52.242;7.956;2023-03-04T01:07:34;100657.84;;;4.40;100.00
5574;BME280;2563;52.242;7.956;2023-03-04T01:10:00;100651.91;;;4.41;100.00
5574;BME280;2563;52.242;7.956;2023-03-04T01:12:25;100651.91;;;4.40;100.00
5574;BME280;2563;52.242;7.956;2023-03-04T01:14:52;100648.50;;;4.39;100.00
5574;BME280;2563;52.242;7.956;2023-03-04T01:17:17;100643.41;;;4.39;100.00
5574;BME280;2563;52.242;7.956;2023-03-04T01:19:43;100650.19;;;4.37;100.00
5574;BME280;2563;52.242;7.956;2023-03-04T01:22:09;100642.56;;;4.37;100.00
5574;BME280;2563;52.242;7.956;2023-03-04T01:24:36;100633.22;;;4.36;100.00
5574;BME280;2563;52.242;7.956;2023-03-04T01:27:01;100635.78;;;4.36;100.00
5574;BME280;2563;52.242;7.956;2023-03-04T01:29:27;100630.69;;;4.36;100.00
5574;BME280;2563;52.242;7.956;2023-03-04T01:31:52;100619.63;;;4.40;100.00
5574;BME280;2563;52.242;7.956;2023-03-04T01:34:18;100623.06;;;4.45;100.00
5574;BME280;2563;52.242;7.956;2023-03-04T01:36:43;100623.03;;;4.47;100.00
5574;BME280;2563;52.242;7.956;2023-03-04T01:39:08;100622.19;;;4.50;100.00
5574;BME280;2563;52.242;7.956;2023-03-04T01:41:34;100623.88;;;4.47;100.00
5574;BME280;2563;52.242;7.956;2023-03-04T01:44:00;100621.34;;;4.47;100.00
5574;BME280;2563;52.242;7.956;2023-03-04T01:46:27;100622.19;;;4.46;100.00
5574;BME280;2563;52.242;7.956;2023-03-04T01:48:53;100618.78;;;4.41;100.00
5574;BME280;2563;52.242;7.956;2023-03-04T01:51:19;100617.94;;;4.41;100.00
5574;BME280;2563;52.242;7.956;2023-03-04T01:53:47;100609.44;;;4.39;100.00
5574;BME280;2563;52.242;7.956;2023-03-04T01:59:17;100605.19;;;4.36;100.00
5574;BME280;2563;52.242;7.956;2023-03-04T02:01:45;100595.84;;;4.35;100.00
5574;BME280;2563;52.242;7.956;2023-03-04T02:04:11;100595.00;;;4.32;100.00
5574;BME280;2563;52.242;7.956;2023-03-04T02:06:38;100595.84;;;4.34;100.00
5574;BME280;2563;52.242;7.956;2023-03-04T02:09:05;100589.91;;;4.35;100.00
5574;BME280;2563;52.242;7.956;2023-03-04T02:11:31;100593.31;;;4.34;100.00
5574;BME280;2563;52.242;7.956;2023-03-04T02:13:57;100589.06;;;4.34;100.00
5574;BME280;2563;52.242;7.956;2023-03-04T02:16:22;100593.28;;;4.32;100.00
5574;BME280;2563;52.242;7.956;2023-03-04T02:18:48;100584.78;;;4.33;100.00
5574;BME280;2563;52.242;7.956;2023-03-04T02:21:29;100584.78;;;4.33;100.00
5574;BME280;2563;52.242;7.956;2023-03-04T02:24:26;100589.91;;;4.35;100.00
5574;BME280;2563;52.242;7.956;2023-03-04T02:26:53;100590.75;;;4.34;100.00
5574;BME280;2563;52.242;7.956;2023-03-04T02:29:18;100583.13;;;4.34;100.00
5574;BME280;2563;52.242;7.956;2023-03-04T02:31:49;100583.09;;;4.32;100.00
5574;BME280;2563;52.242;7.956;2023-03-04T02:34:21;100575.44;;;4.32;100.00
5574;BME280;2563;52.242;7.956;2023-03-04T02:36:49;100581.38;;;4.33;100.00
5574;BME280;2563;52.242;7.956;2023-03-04T02:39:27;100576.31;;;4.34;100.00
5574;BME280;2563;52.242;7.956;2023-03-04T02:41:54;100583.09;;;4.32;100.00
5574;BME280;2563;52.242;7.956;2023-03-04T02:44:24;100575.47;;;4.34;100.00
5574;BME280;2563;52.242;7.956;2023-03-04T02:46:51;100574.59;;;4.33;100.00
5574;BME280;2563;52.242;7.956;2023-03-04T02:49:17;100583.09;;;4.32;100.00
5574;BME280;2563;52.242;7.956;2023-03-04T02:51:43;100581.38;;;4.33;100.00
5574;BME280;2563;52.242;7.956;2023-03-04T02:54:20;100572.06;;;4.32;100.00
5574;BME280;2563;52.242;7.956;2023-03-04T02:56:54;100578.00;;;4.32;100.00
5574;BME280;2563;52.242;7.956;2023-03-04T02:59:21;100570.34;;;4.32;100.00
5574;BME280;2563;52.242;7.956;2023-03-04T03:01:47;100568.66;;;4.31;100.00
5574;BME280;2563;52.242;7.956;2023-03-04T03:04:12;100578.00;;;4.29;100.00
5574;BME280;2563;52.242;7.956;2023-03-04T03:06:39;100581.41;;;4.31;100.00
5574;BME280;2563;52.242;7.956;2023-03-04T03:09:05;100572.03;;;4.30;100.00
5574;BME280;2563;52.242;7.956;2023-03-04T03:11:31;100581.41;;;4.31;100.00
5574;BME280;2563;52.242;7.956;2023-03-04T03:13:56;100569.50;;;4.30;100.00
5574;BME280;2563;52.242;7.956;2023-03-04T03:16:22;100570.34;;;4.32;100.00
5574;BME280;2563;52.242;7.956;2023-03-04T03:18:47;100575.44;;;4.35;100.00
5574;BME280;2563;52.242;7.956;2023-03-04T03:21:13;100572.91;;;4.35;100.00
5574;BME280;2563;52.242;7.956;2023-03-04T03:23:38;100568.69;;;4.36;100.00
5574;BME280;2563;52.242;7.956;2023-03-04T03:26:04;100569.53;;;4.36;100.00
5574;BME280;2563;52.242;7.956;2023-03-04T03:28:30;100569.53;;;4.36;100.00
5574;BME280;2563;52.242;7.956;2023-03-04T03:30:56;100572.06;;;4.38;100.00
5574;BME280;2563;52.242;7.956;2023-03-04T03:33:22;100566.97;;;4.39;100.00
5574;BME280;2563;52.242;7.956;2023-03-04T03:35:47;100562.72;;;4.37;100.00
5574;BME280;2563;52.242;7.956;2023-03-04T03:38:13;100561.88;;;4.41;100.00
5574;BME280;2563;52.242;7.956;2023-03-04T03:40:38;100557.63;;;4.41;100.00
5574;BME280;2563;52.242;7.956;2023-03-04T03:43:04;100555.91;;;4.40;100.00
5574;BME280;2563;52.242;7.956;2023-03-04T03:45:29;100560.16;;;4.40;100.00
5574;BME280;2563;52.242;7.956;2023-03-04T03:47:54;100555.06;;;4.37;100.00
5574;BME280;2563;52.242;7.956;2023-03-04T03:50:20;100560.16;;;4.35;100.00
5574;BME280;2563;52.242;7.956;2023-03-04T03:52:45;100555.94;;;4.34;100.00
5574;BME280;2563;52.242;7.956;2023-03-04T03:55:11;100545.72;;;4.34;100.00
5574;BME280;2563;52.242;7.956;2023-03-04T03:57:36;100544.88;;;4.35;100.00
5574;BME280;2563;52.242;7.956;2023-03-04T04:00:03;100539.78;;;4.35;100.00
5574;BME280;2563;52.242;7.956;2023-03-04T04:02:28;100525.34;;;4.34;100.00
5574;BME280;2563;52.242;7.956;2023-03-04T04:04:54;100534.69;;;4.35;100.00
5574;BME280;2563;52.242;7.956;2023-03-04T04:07:19;100532.97;;;4.33;100.00
5574;BME280;2563;52.242;7.956;2023-03-04T04:09:44;100522.78;;;4.33;100.00
5574;BME280;2563;52.242;7.956;2023-03-04T04:12:12;100514.28;;;4.31;100.00
5574;BME280;2563;52.242;7.956;2023-03-04T04:14:38;100518.53;;;4.30;100.00
5574;BME280;2563;52.242;7.956;2023-03-04T04:17:04;100518.56;;;4.27;100.00
5574;BME280;2563;52.242;7.956;2023-03-04T04:19:29;100511.75;;;4.26;100.00
5574;BME280;2563;52.242;7.956;2023-03-04T04:21:54;100507.50;;;4.25;100.00
5574;BME280;2563;52.242;7.956;2023-03-04T04:24:20;100504.09;;;4.23;100.00
5574;BME280;2563;52.242;7.956;2023-03-04T04:26:45;100499.88;;;4.22;100.00
5574;BME280;2563;52.242;7.956;2023-03-04T04:29:13;100493.06;;;4.24;100.00
5574;BME280;2563;52.242;7.956;2023-03-04T04:31:39;100499.84;;;4.25;100.00
5574;BME280;2563;52.242;7.956;2023-03-04T04:34:04;100499.84;;;4.25;100.00
5574;BME280;2563;52.242;7.956;2023-03-04T04:36:30;100493.06;;;4.24;100.00
5574;BME280;2563;52.242;7.956;2023-03-04T04:38:55;100495.63;;;4.24;100.00
5574;BME280;2563;52.242;7.956;2023-03-04T04:41:24;100495.63;;;4.27;100.00
5574;BME280;2563;52.242;7.956;2023-03-04T04:43:50;100488.81;;;4.28;100.00
5574;BME280;2563;52.242;7.956;2023-03-04T04:46:16;100493.91;;;4.28;100.00
5574;BME280;2563;52.242;7.956;2023-03-04T04:48:41;100486.28;;;4.29;100.00
5574;BME280;2563;52.242;7.956;2023-03-04T04:51:07;100480.34;;;4.27;100.00
5574;BME280;2563;52.242;7.956;2023-03-04T04:53:33;100494.78;;;4.31;100.00
5574;BME280;2563;52.242;7.956;2023-03-04T04:55:58;100483.72;;;4.26;100.00
5574;BME280;2563;52.242;7.956;2023-03-04T04:58:24;100491.34;;;4.26;100.00
5574;BME280;2563;52.242;7.956;2023-03-04T05:00:49;100476.94;;;4.26;100.00
5574;BME280;2563;52.242;7.956;2023-03-04T05:03:14;100471.84;;;4.26;100.00
5574;BME280;2563;52.242;7.956;2023-03-04T05:05:40;100471.00;;;4.24;100.00
5574;BME280;2563;52.242;7.956;2023-03-04T05:08:06;100464.19;;;4.25;100.00
5574;BME280;2563;52.242;7.956;2023-03-04T05:10:31;100462.47;;;4.21;100.00
5574;BME280;2563;52.242;7.956;2023-03-04T05:12:57;100445.50;;;4.20;100.00
5574;BME280;2563;52.242;7.956;2023-03-04T05:15:22;100447.22;;;4.18;100.00
5574;BME280;2563;52.242;7.956;2023-03-04T05:17:47;100448.06;;;4.17;100.00
5574;BME280;2563;52.242;7.956;2023-03-04T05:20:13;100443.81;;;4.16;100.00
5574;BME280;2563;52.242;7.956;2023-03-04T05:22:38;100448.91;;;4.16;100.00
5574;BME280;2563;52.242;7.956;2023-03-04T05:25:04;100438.72;;;4.16;100.00
5574;BME280;2563;52.242;7.956;2023-03-04T05:27:29;100433.63;;;4.16;100.00
5574;BME280;2563;52.242;7.956;2023-03-04T05:29:55;100434.47;;;4.16;100.00
5574;BME280;2563;52.242;7.956;2023-03-04T05:32:23;100432.75;;;4.14;100.00
5574;BME280;2563;52.242;7.956;2023-03-04T05:34:49;100435.31;;;4.14;100.00
5574;BME280;2563;52.242;7.956;2023-03-04T05:37:14;100431.06;;;4.13;100.00
5574;BME280;2563;52.242;7.956;2023-03-04T05:39:39;100425.97;;;4.11;100.00
5574;BME280;2563;52.242;7.956;2023-03-04T05:42:05;100418.34;;;4.11;100.00
5574;BME280;2563;52.242;7.956;2023-03-04T05:44:30;100424.28;;;4.12;100.00
5574;BME280;2563;52.242;7.956;2023-03-04T05:46:56;100422.59;;;4.12;100.00
5574;BME280;2563;52.242;7.956;2023-03-04T05:49:21;100419.19;;;4.10;100.00
5574;BME280;2563;52.242;7.956;2023-03-04T05:51:46;100425.97;;;4.13;100.00
5574;BME280;2563;52.242;7.956;2023-03-04T05:54:12;100428.53;;;4.13;100.00
5574;BME280;2563;52.242;7.956;2023-03-04T05:56:37;100426.81;;;4.12;100.00
5574;BME280;2563;52.242;7.956;2023-03-04T05:59:02;100428.53;;;4.10;100.00
5574;BME280;2563;52.242;7.956;2023-03-04T06:01:28;100426.81;;;4.09;100.00
5574;BME280;2563;52.242;7.956;2023-03-04T06:03:55;100422.56;;;4.09;100.00
5574;BME280;2563;52.242;7.956;2023-03-04T06:06:20;100425.13;;;4.11;100.00
5574;BME280;2563;52.242;7.956;2023-03-04T06:08:46;100420.91;;;4.10;100.00
5574;BME280;2563;52.242;7.956;2023-03-04T06:11:11;100423.44;;;4.10;100.00
5574;BME280;2563;52.242;7.956;2023-03-04T06:13:36;100423.44;;;4.10;100.00
5574;BME280;2563;52.242;7.956;2023-03-04T06:16:02;100428.53;;;4.10;100.00
5574;BME280;2563;52.242;7.956;2023-03-04T06:18:28;100426.81;;;4.12;100.00
5574;BME280;2563;52.242;7.956;2023-03-04T06:21:00;100430.22;;;4.14;100.00
5574;BME280;2563;52.242;7.956;2023-03-04T06:23:28;100427.66;;;4.14;100.00
5574;BME280;2563;52.242;7.956;2023-03-04T06:25:55;100421.72;;;4.18;100.00
5574;BME280;2563;52.242;7.956;2023-03-04T06:28:21;100422.56;;;4.18;100.00
5574;BME280;2563;52.242;7.956;2023-03-04T06:30:47;100414.94;;;4.20;100.00
5574;BME280;2563;52.242;7.956;2023-03-04T06:33:12;100423.44;;;4.22;100.00
5574;BME280;2563;52.242;7.956;2023-03-04T06:35:38;100427.66;;;4.23;100.00
5574;BME280;2563;52.242;7.956;2023-03-04T06:38:03;100427.66;;;4.23;100.00
5574;BME280;2563;52.242;7.956;2023-03-04T06:40:28;100425.97;;;4.23;100.00
5574;BME280;2563;52.242;7.956;2023-03-04T06:42:54;100421.75;;;4.27;100.00
5574;BME280;2563;52.242;7.956;2023-03-04T06:45:19;100417.47;;;4.28;100.00
5574;BME280;2563;52.242;7.956;2023-03-04T06:47:44;100432.78;;;4.29;100.00
5574;BME280;2563;52.242;7.956;2023-03-04T06:50:11;100427.69;;;4.29;100.00
5574;BME280;2563;52.242;7.956;2023-03-04T06:52:38;100425.97;;;4.30;100.00
5574;BME280;2563;52.242;7.956;2023-03-04T06:55:03;100425.13;;;4.32;100.00
5574;BME280;2563;52.242;7.956;2023-03-04T06:57:29;100427.69;;;4.34;100.00
5574;BME280;2563;52.242;7.956;2023-03-04T06:59:54;100421.72;;;4.33;100.00
5574;BME280;2563;52.242;7.956;2023-03-04T07:02:20;100425.13;;;4.35;100.00
5574;BME280;2563;52.242;7.956;2023-03-04T07:04:45;100420.91;;;4.36;100.00
5574;BME280;2563;52.242;7.956;2023-03-04T07:07:11;100423.41;;;4.37;100.00
5574;BME280;2563;52.242;7.956;2023-03-04T07:09:36;100425.13;;;4.38;100.00
5574;BME280;2563;52.242;7.956;2023-03-04T07:12:02;100426.81;;;4.39;100.00
5574;BME280;2563;52.242;7.956;2023-03-04T07:14:28;100420.03;;;4.41;100.00
5574;BME280;2563;52.242;7.956;2023-03-04T07:16:54;100423.44;;;4.43;100.00
5574;BME280;2563;52.242;7.956;2023-03-04T07:19:20;100413.25;;;4.43;100.00
5574;BME280;2563;52.242;7.956;2023-03-04T07:21:45;100420.84;;;4.40;100.00
5574;BME280;2563;52.242;7.956;2023-03-04T07:24:11;100418.31;;;4.40;100.00
5574;BME280;2563;52.242;7.956;2023-03-04T07:26:36;100425.97;;;4.39;100.00
5574;BME280;2563;52.242;7.956;2023-03-04T07:29:02;100426.81;;;4.39;100.00
5574;BME280;2563;52.242;7.956;2023-03-04T07:31:33;100433.63;;;4.36;100.00
5574;BME280;2563;52.242;7.956;2023-03-04T07:34:02;100432.78;;;4.34;100.00
5574;BME280;2563;52.242;7.956;2023-03-04T07:36:28;100434.44;;;4.33;100.00
5574;BME280;2563;52.242;7.956;2023-03-04T07:38:53;100441.25;;;4.33;100.00
5574;BME280;2563;52.242;7.956;2023-03-04T07:41:20;100444.66;;;4.36;100.00
5574;BME280;2563;52.242;7.956;2023-03-04T07:43:46;100447.22;;;4.36;100.00
5574;BME280;2563;52.242;7.956;2023-03-04T07:46:12;100451.44;;;4.37;100.00
5574;BME280;2563;52.242;7.956;2023-03-04T07:48:37;100443.81;;;4.42;100.00
5574;BME280;2563;52.242;7.956;2023-03-04T07:51:04;100446.38;;;4.48;100.00
5574;BME280;2563;52.242;7.956;2023-03-04T07:53:30;100454.00;;;4.50;100.00
5574;BME280;2563;52.242;7.956;2023-03-04T07:55:56;100448.91;;;4.51;100.00
5574;BME280;2563;52.242;7.956;2023-03-04T07:58:21;100452.28;;;4.55;100.00
5574;BME280;2563;52.242;7.956;2023-03-04T08:00:47;100450.56;;;4.67;100.00
5574;BME280;2563;52.242;7.956;2023-03-04T08:03:12;100445.47;;;4.72;100.00
5574;BME280;2563;52.242;7.956;2023-03-04T08:05:38;100448.00;;;4.64;100.00
5574;BME280;2563;52.242;7.956;2023-03-04T08:08:04;100442.09;;;4.58;100.00
5574;BME280;2563;52.242;7.956;2023-03-04T08:10:29;100454.00;;;4.56;100.00
5574;BME280;2563;52.242;7.956;2023-03-04T08:12:54;100448.88;;;4.50;100.00
5574;BME280;2563;52.242;7.956;2023-03-04T08:15:20;100448.03;;;4.57;100.00
5574;BME280;2563;52.242;7.956;2023-03-04T08:17:45;100449.72;;;4.61;100.00
5574;BME280;2563;52.242;7.956;2023-03-04T08:20:11;100454.84;;;4.62;100.00
5574;BME280;2563;52.242;7.956;2023-03-04T08:22:36;100457.38;;;4.61;100.00
5574;BME280;2563;52.242;7.956;2023-03-04T08:25:02;100463.34;;;4.60;100.00
5574;BME280;2563;52.242;7.956;2023-03-04T08:27:27;100459.06;;;4.62;100.00
5574;BME280;2563;52.242;7.956;2023-03-04T08:29:53;100467.56;;;4.64;100.00
5574;BME280;2563;52.242;7.956;2023-03-04T08:32:18;100478.59;;;4.69;100.00
5574;BME280;2563;52.242;7.956;2023-03-04T08:34:43;100479.47;;;4.74;100.00
5574;BME280;2563;52.242;7.956;2023-03-04T08:37:09;100479.47;;;4.74;100.00
5574;BME280;2563;52.242;7.956;2023-03-04T08:39:34;100486.25;;;4.71;100.00
5574;BME280;2563;52.242;7.956;2023-03-04T08:42:01;100487.09;;;4.71;100.00
5574;BME280;2563;52.242;7.956;2023-03-04T08:44:26;100499.00;;;4.71;100.00
5574;BME280;2563;52.242;7.956;2023-03-04T08:46:51;100504.94;;;4.77;100.00
5574;BME280;2563;52.242;7.956;2023-03-04T08:49:17;100516.84;;;4.78;100.00
5574;BME280;2563;52.242;7.956;2023-03-04T08:51:42;100529.59;;;4.80;100.00
5574;BME280;2563;52.242;7.956;2023-03-04T08:54:10;100532.16;;;4.75;100.00
5574;BME280;2563;52.242;7.956;2023-03-04T08:56:35;100550.84;;;4.80;100.00
5574;BME280;2563;52.242;7.956;2023-03-04T08:59:00;100558.47;;;4.83;100.00
5574;BME280;2563;52.242;7.956;2023-03-04T09:01:26;100567.84;;;4.89;100.00
5574;BME280;2563;52.242;7.956;2023-03-04T09:03:51;100579.75;;;4.92;100.00
5574;BME280;2563;52.242;7.956;2023-03-04T09:06:17;100606.97;;;4.96;100.00
5574;BME280;2563;52.242;7.956;2023-03-04T09:08:44;100610.31;;;4.98;100.00
5574;BME280;2563;52.242;7.956;2023-03-04T09:11:11;100627.34;;;4.91;100.00
5574;BME280;2563;52.242;7.956;2023-03-04T09:13:37;100635.84;;;4.88;100.00
5574;BME280;2563;52.242;7.956;2023-03-04T09:16:07;100642.63;;;4.88;100.00
5574;BME280;2563;52.242;7.956;2023-03-04T09:18:33;100669.88;;;5.03;100.00
5574;BME280;2563;52.242;7.956;2023-03-04T09:20:58;100680.91;;;5.19;100.00
5574;BME280;2563;52.242;7.956;2023-03-04T09:23:23;100711.53;;;5.31;100.00
5574;BME280;2563;52.242;7.956;2023-03-04T09:25:49;100726.00;;;5.47;100.00
5574;BME280;2563;52.242;7.956;2023-03-04T09:28:15;100754.09;;;5.63;100.00
5574;BME280;2563;52.242;7.956;2023-03-04T09:30:42;100766.84;;;5.73;100.00
5574;BME280;2563;52.242;7.956;2023-03-04T09:33:07;100773.63;;;5.84;100.00
5574;BME280;2563;52.242;7.956;2023-03-04T09:35:33;100781.31;;;5.70;100.00
5574;BME280;2563;52.242;7.956;2023-03-04T09:37:58;100780.44;;;5.69;100.00
5574;BME280;2563;52.242;7.956;2023-03-04T09:40:29;100777.06;;;5.69;100.00
5574;BME280;2563;52.242;7.956;2023-03-04T09:43:01;100777.91;;;5.66;100.00
5574;BME280;2563;52.242;7.956;2023-03-04T09:45:36;100783.84;;;5.74;100.00
5574;BME280;2563;52.242;7.956;2023-03-04T09:48:05;100778.75;;;5.90;100.00
5574;BME280;2563;52.242;7.956;2023-03-04T09:50:33;100779.59;;;6.18;100.00
5574;BME280;2563;52.242;7.956;2023-03-04T09:53:15;100780.41;;;6.28;100.00
5574;BME280;2563;52.242;7.956;2023-03-04T09:55:44;100761.69;;;6.13;100.00
5574;BME280;2563;52.242;7.956;2023-03-04T09:58:41;100749.81;;;5.97;100.00
5574;BME280;2563;52.242;7.956;2023-03-04T10:04:02;100745.53;;;5.96;100.00
5574;BME280;2563;52.242;7.956;2023-03-04T10:06:34;100741.22;;;6.20;100.00
5574;BME280;2563;52.242;7.956;2023-03-04T10:11:46;100726.41;;;6.89;100.00
5574;BME280;2563;52.242;7.956;2023-03-04T10:16:58;100680.31;;;6.95;100.00
5574;BME280;2563;52.242;7.956;2023-03-04T10:19:48;100646.38;;;6.70;100.00
5574;BME280;2563;52.242;7.956;2023-03-04T10:22:22;100621.63;;;6.74;100.00
5574;BME280;2563;52.242;7.956;2023-03-04T10:24:53;100625.03;;;6.76;100.00
5574;BME280;2563;52.242;7.956;2023-03-04T10:27:19;100604.63;;;6.67;100.00
5574;BME280;2563;52.242;7.956;2023-03-04T10:29:45;100587.50;;;6.75;100.00
5574;BME280;2563;52.242;7.956;2023-03-04T10:32:13;100576.25;;;6.97;100.00
5574;BME280;2563;52.242;7.956;2023-03-04T10:34:40;100572.50;;;7.29;100.00
5574;BME280;2563;52.242;7.956;2023-03-04T10:37:06;100533.22;;;7.33;100.00
5574;BME280;2563;52.242;7.956;2023-03-04T10:39:43;100505.69;;;7.49;100.00
5574;BME280;2563;52.242;7.956;2023-03-04T10:44:42;100450.72;;;7.75;100.00
5574;BME280;2563;52.242;7.956;2023-03-04T10:47:09;100414.06;;;7.71;100.00
5574;BME280;2563;52.242;7.956;2023-03-04T10:49:50;100390.63;;;7.37;100.00
5574;BME280;2563;52.242;7.956;2023-03-04T10:52:28;100364.53;;;7.12;100.00
5574;BME280;2563;52.242;7.956;2023-03-04T10:55:03;100341.56;;;7.06;100.00
5574;BME280;2563;52.242;7.956;2023-03-04T10:57:40;100352.09;;;6.82;100.00
5574;BME280;2563;52.242;7.956;2023-03-04T11:02:43;100367.53;;;6.75;100.00
5574;BME280;2563;52.242;7.956;2023-03-04T11:07:52;100403.47;;;6.63;100.00
5574;BME280;2563;52.242;7.956;2023-03-04T11:12:55;100435.78;;;6.70;100.00
5574;BME280;2563;52.242;7.956;2023-03-04T11:15:25;100457.25;;;6.56;100.00
5574;BME280;2563;52.242;7.956;2023-03-04T11:18:01;100469.34;;;6.34;100.00
5574;BME280;2563;52.242;7.956;2023-03-04T11:20:32;100496.69;;;6.28;100.00
5574;BME280;2563;52.242;7.956;2023-03-04T11:23:05;100502.63;;;6.30;100.00
5574;BME280;2563;52.242;7.956;2023-03-04T11:25:39;100525.66;;;6.25;100.00
5574;BME280;2563;52.242;7.956;2023-03-04T11:28:16;100530.78;;;6.25;100.00
5574;BME280;2563;52.242;7.956;2023-03-04T11:30:49;100546.03;;;6.37;100.00
5574;BME280;2563;52.242;7.956;2023-03-04T11:33:21;100545.19;;;6.37;100.00
5574;BME280;2563;52.242;7.956;2023-03-04T11:35:53;100538.25;;;6.51;100.00
5574;BME280;2563;52.242;7.956;2023-03-04T11:38:34;100536.38;;;6.72;100.00
5574;BME280;2563;52.242;7.956;2023-03-04T11:41:05;100539.03;;;6.61;100.00
5574;BME280;2563;52.242;7.956;2023-03-04T11:43:36;100548.31;;;6.71;100.00
5574;BME280;2563;52.242;7.956;2023-03-04T11:51:27;100571.03;;;7.03;100.00
5574;BME280;2563;52.242;7.956;2023-03-04T11:56:47;100577.81;;;7.11;100.00
5574;BME280;2563;52.242;7.956;2023-03-04T12:06:56;100613.16;;;6.66;100.00
5574;BME280;2563;52.242;7.956;2023-03-04T12:17:32;100580.84;;;6.57;100.00
5574;BME280;2563;52.242;7.956;2023-03-04T12:36:44;100518.78;;;7.26;100.00
5574;BME280;2563;52.242;7.956;2023-03-04T12:39:36;100528.06;;;7.36;100.00
5574;BME280;2563;52.242;7.956;2023-03-04T12:47:45;100565.03;;;7.86;100.00
5574;BME280;2563;52.242;7.956;2023-03-04T12:50:28;100573.38;;;8.02;100.00
5574;BME280;2563;52.242;7.956;2023-03-04T12:53:00;100586.81;;;8.18;100.00
5574;BME280;2563;52.242;7.956;2023-03-04T12:55:36;100613.28;;;8.20;100.00
5574;BME280;2563;52.242;7.956;2023-03-04T12:58:02;100613.28;;;8.19;100.00
5574;BME280;2563;52.242;7.956;2023-03-04T13:00:45;100634.69;;;8.18;100.00
5574;BME280;2563;52.242;7.956;2023-03-04T13:03:20;100666.06;;;7.64;100.00
5574;BME280;2563;52.242;7.956;2023-03-04T13:08:55;100711.81;;;7.03;100.00
5574;BME280;2563;52.242;7.956;2023-03-04T13:18:55;100673.56;;;6.82;100.00
5574;BME280;2563;52.242;7.956;2023-03-04T13:21:23;100662.53;;;6.80;100.00
5574;BME280;2563;52.242;7.956;2023-03-04T13:23:50;100641.97;;;6.89;100.00
5574;BME280;2563;52.242;7.956;2023-03-04T13:26:35;100624.91;;;6.94;100.00
5574;BME280;2563;52.242;7.956;2023-03-04T13:29:30;100635.09;;;6.97;100.00
5574;BME280;2563;52.242;7.956;2023-03-04T13:32:08;100646.94;;;7.08;100.00
5574;BME280;2563;52.242;7.956;2023-03-04T13:37:30;100644.13;;;7.37;100.00
5574;BME280;2563;52.242;7.956;2023-03-04T13:40:32;100645.84;;;7.35;100.00
5574;BME280;2563;52.242;7.956;2023-03-04T13:43:25;100656.09;;;7.36;100.00
5574;BME280;2563;52.242;7.956;2023-03-04T13:45:50;100663.50;;;7.62;100.00
5574;BME280;2563;52.242;7.956;2023-03-04T13:48:25;100667.06;;;8.25;100.00
5574;BME280;2563;52.242;7.956;2023-03-04T13:50:51;100636.34;;;8.84;100.00
5574;BME280;2563;52.242;7.956;2023-03-04T13:53:39;100685.69;;;8.38;100.00
5574;BME280;2563;52.242;7.956;2023-03-04T13:58:52;100742.97;;;7.59;100.00
5574;BME280;2563;52.242;7.956;2023-03-04T14:01:26;100737.75;;;7.65;100.00
5574;BME280;2563;52.242;7.956;2023-03-04T14:03:53;100735.97;;;7.75;100.00
5574;BME280;2563;52.242;7.956;2023-03-04T14:06:20;100742.00;;;7.70;100.00
5574;BME280;2563;52.242;7.956;2023-03-04T14:08:48;100755.84;;;7.49;100.00
5574;BME280;2563;52.242;7.956;2023-03-04T14:11:26;100778.25;;;7.20;100.00
5574;BME280;2563;52.242;7.956;2023-03-04T14:13:52;100772.34;;;7.12;100.00
5574;BME280;2563;52.242;7.956;2023-03-04T14:16:20;100769.09;;;6.87;100.00
5574;BME280;2563;52.242;7.956;2023-03-04T14:19:00;100769.97;;;6.77;100.00
5574;BME280;2563;52.242;7.956;2023-03-04T14:21:26;100764.88;;;6.74;100.00
5574;BME280;2563;52.242;7.956;2023-03-04T14:24:00;100761.53;;;6.53;100.00
5574;BME280;2563;52.242;7.956;2023-03-04T14:26:25;100767.50;;;6.60;100.00
5574;BME280;2563;52.242;7.956;2023-03-04T14:28:51;100751.25;;;6.73;100.00
5574;BME280;2563;52.242;7.956;2023-03-04T14:31:23;100744.44;;;6.65;100.00
5574;BME280;2563;52.242;7.956;2023-03-04T14:33:51;100745.31;;;6.67;100.00
5574;BME280;2563;52.242;7.956;2023-03-04T14:36:22;100729.94;;;6.73;100.00
5574;BME280;2563;52.242;7.956;2023-03-04T14:38:54;100724.84;;;6.67;100.00